sensor_id;sensor_type;location;lat;lon;timestamp;pressure;altitude;pressure_sealevel;temperature;humidity
70690;BME280;58267;51.156;17.044;2023-05-12T00:00:48;100427.52;;;15.93;27.99
70690;BME280;58267;51.156;17.044;2023-05-12T00:03:14;100427.73;;;16.12;27.71
70690;BME280;58267;51.156;17.044;2023-05-12T00:05:40;100426.09;;;16.12;27.79
70690;BME280;58267;51.156;17.044;2023-05-12T00:08:05;100428.31;;;15.44;27.89
70690;BME280;58267;51.156;17.044;2023-05-12T00:10:30;100427.75;;;15.72;27.89
70690;BME280;58267;51.156;17.044;2023-05-12T00:12:56;100427.86;;;15.82;28.18
70690;BME280;58267;51.156;17.044;2023-05-12T00:15:21;100423.27;;;15.84;27.75
70690;BME280;58267;51.156;17.044;2023-05-12T00:17:46;100423.49;;;15.86;27.81
70690;BME280;58267;51.156;17.044;2023-05-12T00:20:12;100422.62;;;15.97;27.72
70690;BME280;58267;51.156;17.044;2023-05-12T00:22:37;100422.32;;;15.82;28.02
70690;BME280;58267;51.156;17.044;2023-05-12T00:25:03;100421.77;;;16.03;27.75
70690;BME280;58267;51.156;17.044;2023-05-12T00:27:27;100421.49;;;15.83;27.97
70690;BME280;58267;51.156;17.044;2023-05-12T00:29:53;100420.08;;;16.04;27.64
70690;BME280;58267;51.156;17.044;2023-05-12T00:32:19;100418.93;;;15.86;27.66
70690;BME280;58267;51.156;17.044;2023-05-12T00:34:44;100421.00;;;15.78;27.81
70690;BME280;58267;51.156;17.044;2023-05-12T00:37:10;100422.39;;;15.75;27.70
70690;BME280;58267;51.156;17.044;2023-05-12T00:39:35;100424.99;;;15.84;27.86
70690;BME280;58267;51.156;17.044;2023-05-12T00:42:01;100426.04;;;15.93;27.73
70690;BME280;58267;51.156;17.044;2023-05-12T00:44:26;100427.53;;;15.87;27.48
70690;BME280;58267;51.156;17.044;2023-05-12T00:46:52;100428.43;;;15.86;27.57
70690;BME280;58267;51.156;17.044;2023-05-12T00:49:17;100430.14;;;15.73;27.89
70690;BME280;58267;51.156;17.044;2023-05-12T00:51:43;100432.31;;;15.77;28.04
70690;BME280;58267;51.156;17.044;2023-05-12T00:54:08;100432.79;;;15.50;27.94
70690;BME280;58267;51.156;17.044;2023-05-12T00:56:34;100432.86;;;15.54;27.91
70690;BME280;58267;51.156;17.044;2023-05-12T00:58:59;100434.45;;;15.73;27.98
70690;BME280;58267;51.156;17.044;2023-05-12T01:01:24;100434.81;;;15.82;27.81
70690;BME280;58267;51.156;17.044;2023-05-12T01:03:50;100436.99;;;15.49;27.90
70690;BME280;58267;51.156;17.044;2023-05-12T01:06:18;100437.72;;;15.60;28.02
70690;BME280;58267;51.156;17.044;2023-05-12T01:08:41;100436.22;;;15.49;28.17
70690;BME280;58267;51.156;17.044;2023-05-12T01:11:06;100436.72;;;15.31;28.34
70690;BME280;58267;51.156;17.044;2023-05-12T01:13:32;100439.74;;;15.04;28.42
70690;BME280;58267;51.156;17.044;2023-05-12T01:15:59;100439.54;;;15.05;28.65
70690;BME280;58267;51.156;17.044;2023-05-12T01:18:22;100438.14;;;14.99;28.78
70690;BME280;58267;51.156;17.044;2023-05-12T01:20:47;100438.20;;;14.95;28.81
70690;BME280;58267;51.156;17.044;2023-05-12T01:23:17;100438.45;;;15.25;28.69
70690;BME280;58267;51.156;17.044;2023-05-12T01:25:40;100436.15;;;14.86;28.86
70690;BME280;58267;51.156;17.044;2023-05-12T01:28:05;100437.45;;;14.55;29.15
70690;BME280;58267;51.156;17.044;2023-05-12T01:30:31;100440.11;;;15.09;29.09
70690;BME280;58267;51.156;17.044;2023-05-12T01:32:55;100441.64;;;14.45;29.33
70690;BME280;58267;51.156;17.044;2023-05-12T01:35:20;100442.87;;;14.80;29.33
70690;BME280;58267;51.156;17.044;2023-05-12T01:37:45;100443.46;;;14.79;29.40
70690;BME280;58267;51.156;17.044;2023-05-12T01:40:11;100445.85;;;14.56;29.29
70690;BME280;58267;51.156;17.044;2023-05-12T01:42:38;100444.80;;;14.61;29.31
70690;BME280;58267;51.156;17.044;2023-05-12T01:45:02;100446.60;;;14.75;29.34
70690;BME280;58267;51.156;17.044;2023-05-12T01:47:27;100451.38;;;14.60;29.69
70690;BME280;58267;51.156;17.044;2023-05-12T01:49:54;100453.04;;;14.37;29.57
70690;BME280;58267;51.156;17.044;2023-05-12T01:52:20;100455.49;;;14.35;29.71
70690;BME280;58267;51.156;17.044;2023-05-12T01:54:45;100453.44;;;14.40;29.63
70690;BME280;58267;51.156;17.044;2023-05-12T01:57:11;100454.82;;;14.51;29.68
70690;BME280;58267;51.156;17.044;2023-05-12T01:59:37;100456.42;;;14.66;29.46
70690;BME280;58267;51.156;17.044;2023-05-12T02:02:02;100457.63;;;14.63;29.60
70690;BME280;58267;51.156;17.044;2023-05-12T02:04:28;100459.51;;;14.53;29.64
70690;BME280;58267;51.156;17.044;2023-05-12T02:06:53;100459.43;;;14.22;29.74
70690;BME280;58267;51.156;17.044;2023-05-12T02:09:18;100458.96;;;14.47;29.62
70690;BME280;58267;51.156;17.044;2023-05-12T02:11:44;100459.42;;;14.28;29.56
70690;BME280;58267;51.156;17.044;2023-05-12T02:14:10;100459.07;;;14.39;29.96
70690;BME280;58267;51.156;17.044;2023-05-12T02:16:36;100456.99;;;14.36;29.92
70690;BME280;58267;51.156;17.044;2023-05-12T02:19:01;100462.12;;;14.19;30.19
70690;BME280;58267;51.156;17.044;2023-05-12T02:21:27;100459.32;;;14.21;30.13
70690;BME280;58267;51.156;17.044;2023-05-12T02:23:53;100459.03;;;14.17;30.21
70690;BME280;58267;51.156;17.044;2023-05-12T02:26:19;100459.23;;;14.14;30.24
70690;BME280;58267;51.156;17.044;2023-05-12T02:28:43;100455.48;;;14.26;29.99
70690;BME280;58267;51.156;17.044;2023-05-12T02:31:09;100456.56;;;14.25;29.94
70690;BME280;58267;51.156;17.044;2023-05-12T02:33:34;100458.36;;;14.15;29.96
70690;BME280;58267;51.156;17.044;2023-05-12T02:35:59;100462.09;;;13.97;30.36
70690;BME280;58267;51.156;17.044;2023-05-12T02:38:25;100465.86;;;13.95;30.34
70690;BME280;58267;51.156;17.044;2023-05-12T02:40:51;100466.91;;;13.88;30.42
70690;BME280;58267;51.156;17.044;2023-05-12T02:43:16;100467.01;;;13.79;30.53
70690;BME280;58267;51.156;17.044;2023-05-12T02:45:41;100466.05;;;13.69;30.74
70690;BME280;58267;51.156;17.044;2023-05-12T02:48:07;100469.00;;;13.60;30.98
70690;BME280;58267;51.156;17.044;2023-05-12T02:50:32;100467.51;;;13.71;30.92
70690;BME280;58267;51.156;17.044;2023-05-12T02:52:57;100467.41;;;13.60;31.19
70690;BME280;58267;51.156;17.044;2023-05-12T02:55:23;100465.85;;;13.83;31.30
70690;BME280;58267;51.156;17.044;2023-05-12T02:57:48;100465.01;;;13.52;31.34
70690;BME280;58267;51.156;17.044;2023-05-12T03:00:14;100465.82;;;13.41;31.39
70690;BME280;58267;51.156;17.044;2023-05-12T03:02:38;100464.15;;;13.38;31.39
70690;BME280;58267;51.156;17.044;2023-05-12T03:05:04;100468.95;;;13.57;31.52
70690;BME280;58267;51.156;17.044;2023-05-12T03:07:30;100467.32;;;13.16;31.70
70690;BME280;58267;51.156;17.044;2023-05-12T03:09:55;100469.91;;;13.42;31.75
70690;BME280;58267;51.156;17.044;2023-05-12T03:12:20;100472.93;;;13.19;31.71
70690;BME280;58267;51.156;17.044;2023-05-12T03:14:46;100473.74;;;13.19;31.75
70690;BME280;58267;51.156;17.044;2023-05-12T03:17:11;100473.78;;;13.34;31.92
70690;BME280;58267;51.156;17.044;2023-05-12T03:19:37;100476.35;;;13.35;31.95
70690;BME280;58267;51.156;17.044;2023-05-12T03:22:03;100473.03;;;13.28;32.05
70690;BME280;58267;51.156;17.044;2023-05-12T03:24:28;100471.01;;;13.04;32.07
70690;BME280;58267;51.156;17.044;2023-05-12T03:26:54;100472.92;;;13.33;31.90
70690;BME280;58267;51.156;17.044;2023-05-12T03:29:19;100474.57;;;13.02;31.90
70690;BME280;58267;51.156;17.044;2023-05-12T03:31:44;100479.74;;;13.27;32.03
70690;BME280;58267;51.156;17.044;2023-05-12T03:34:10;100478.17;;;12.76;32.34
70690;BME280;58267;51.156;17.044;2023-05-12T03:36:36;100480.06;;;13.08;32.26
70690;BME280;58267;51.156;17.044;2023-05-12T03:39:02;100477.40;;;13.04;32.32
70690;BME280;58267;51.156;17.044;2023-05-12T03:41:28;100478.02;;;12.80;32.25
70690;BME280;58267;51.156;17.044;2023-05-12T03:43:53;100481.27;;;13.09;32.30
70690;BME280;58267;51.156;17.044;2023-05-12T03:46:19;100482.32;;;12.90;32.46
70690;BME280;58267;51.156;17.044;2023-05-12T03:48:44;100486.25;;;13.19;32.15
70690;BME280;58267;51.156;17.044;2023-05-12T03:51:09;100490.05;;;13.14;32.15
70690;BME280;58267;51.156;17.044;2023-05-12T03:53:35;100490.49;;;13.18;32.05
70690;BME280;58267;51.156;17.044;2023-05-12T03:56:03;100493.82;;;13.19;32.15
70690;BME280;58267;51.156;17.044;2023-05-12T03:58:25;100494.25;;;13.10;32.31
70690;BME280;58267;51.156;17.044;2023-05-12T04:00:51;100496.41;;;13.31;31.99
70690;BME280;58267;51.156;17.044;2023-05-12T04:03:16;100498.58;;;13.35;32.00
70690;BME280;58267;51.156;17.044;2023-05-12T04:05:42;100497.32;;;13.16;31.92
70690;BME280;58267;51.156;17.044;2023-05-12T04:08:08;100501.09;;;13.31;31.69
70690;BME280;58267;51.156;17.044;2023-05-12T04:10:37;100502.54;;;13.18;31.99
70690;BME280;58267;51.156;17.044;2023-05-12T04:12:59;100503.90;;;13.30;31.89
70690;BME280;58267;51.156;17.044;2023-05-12T04:15:25;100502.57;;;13.54;31.96
70690;BME280;58267;51.156;17.044;2023-05-12T04:17:50;100502.70;;;13.65;31.79
70690;BME280;58267;51.156;17.044;2023-05-12T04:20:15;100504.63;;;13.41;31.73
70690;BME280;58267;51.156;17.044;2023-05-12T04:22:41;100503.05;;;13.39;32.04
70690;BME280;58267;51.156;17.044;2023-05-12T04:25:07;100508.86;;;13.45;31.99
70690;BME280;58267;51.156;17.044;2023-05-12T04:27:32;100513.72;;;13.72;31.90
70690;BME280;58267;51.156;17.044;2023-05-12T04:29:57;100515.57;;;13.82;31.88
70690;BME280;58267;51.156;17.044;2023-05-12T04:32:23;100521.27;;;13.70;31.62
70690;BME280;58267;51.156;17.044;2023-05-12T04:34:49;100522.59;;;13.74;31.86
70690;BME280;58267;51.156;17.044;2023-05-12T04:37:15;100522.05;;;14.18;31.65
70690;BME280;58267;51.156;17.044;2023-05-12T04:39:40;100522.71;;;13.96;31.64
70690;BME280;58267;51.156;17.044;2023-05-12T04:42:06;100523.90;;;14.03;31.54
70690;BME280;58267;51.156;17.044;2023-05-12T04:44:32;100522.11;;;14.06;31.75
70690;BME280;58267;51.156;17.044;2023-05-12T04:46:57;100523.12;;;13.99;31.49
70690;BME280;58267;51.156;17.044;2023-05-12T04:49:23;100525.59;;;14.10;31.34
70690;BME280;58267;51.156;17.044;2023-05-12T04:51:49;100524.77;;;14.09;31.42
70690;BME280;58267;51.156;17.044;2023-05-12T04:54:14;100529.38;;;14.27;31.39
70690;BME280;58267;51.156;17.044;2023-05-12T04:56:40;100530.45;;;14.41;31.24
70690;BME280;58267;51.156;17.044;2023-05-12T04:59:05;100531.23;;;14.50;31.00
70690;BME280;58267;51.156;17.044;2023-05-12T05:01:31;100532.66;;;14.58;31.05
70690;BME280;58267;51.156;17.044;2023-05-12T05:03:57;100533.24;;;14.51;31.02
70690;BME280;58267;51.156;17.044;2023-05-12T05:06:22;100535.06;;;14.30;31.03
70690;BME280;58267;51.156;17.044;2023-05-12T05:08:48;100535.20;;;14.45;30.73
70690;BME280;58267;51.156;17.044;2023-05-12T05:11:14;100532.23;;;14.98;30.57
70690;BME280;58267;51.156;17.044;2023-05-12T05:13:39;100533.90;;;15.05;30.69
70690;BME280;58267;51.156;17.044;2023-05-12T05:16:06;100536.84;;;15.02;30.80
70690;BME280;58267;51.156;17.044;2023-05-12T05:18:30;100540.64;;;15.03;30.51
70690;BME280;58267;51.156;17.044;2023-05-12T05:20:55;100538.68;;;14.96;30.19
70690;BME280;58267;51.156;17.044;2023-05-12T05:23:22;100538.35;;;14.72;30.12
70690;BME280;58267;51.156;17.044;2023-05-12T05:25:47;100540.73;;;14.80;30.22
70690;BME280;58267;51.156;17.044;2023-05-12T05:28:13;100539.43;;;14.80;30.25
70690;BME280;58267;51.156;17.044;2023-05-12T05:30:38;100539.70;;;14.95;30.65
70690;BME280;58267;51.156;17.044;2023-05-12T05:33:03;100539.87;;;15.19;30.92
70690;BME280;58267;51.156;17.044;2023-05-12T05:35:29;100537.74;;;15.12;30.63
70690;BME280;58267;51.156;17.044;2023-05-12T05:37:54;100534.87;;;15.36;30.41
70690;BME280;58267;51.156;17.044;2023-05-12T05:40:19;100534.00;;;15.07;30.67
70690;BME280;58267;51.156;17.044;2023-05-12T05:42:44;100532.81;;;15.13;30.93
70690;BME280;58267;51.156;17.044;2023-05-12T05:45:10;100533.67;;;15.24;30.52
70690;BME280;58267;51.156;17.044;2023-05-12T05:47:35;100536.80;;;15.49;30.69
70690;BME280;58267;51.156;17.044;2023-05-12T05:50:00;100535.27;;;15.32;30.42
70690;BME280;58267;51.156;17.044;2023-05-12T05:52:25;100537.23;;;15.32;30.22
70690;BME280;58267;51.156;17.044;2023-05-12T05:54:51;100541.81;;;15.40;29.89
70690;BME280;58267;51.156;17.044;2023-05-12T05:57:17;100542.73;;;15.34;29.94
70690;BME280;58267;51.156;17.044;2023-05-12T05:59:42;100542.13;;;15.38;29.98
70690;BME280;58267;51.156;17.044;2023-05-12T06:02:07;100546.23;;;15.74;29.49
70690;BME280;58267;51.156;17.044;2023-05-12T06:04:33;100545.32;;;15.57;29.99
70690;BME280;58267;51.156;17.044;2023-05-12T06:06:58;100545.35;;;15.82;30.01
70690;BME280;58267;51.156;17.044;2023-05-12T06:09:23;100545.26;;;16.09;29.52
70690;BME280;58267;51.156;17.044;2023-05-12T06:11:49;100543.59;;;15.83;29.65
70690;BME280;58267;51.156;17.044;2023-05-12T06:14:14;100552.08;;;15.61;30.14
70690;BME280;58267;51.156;17.044;2023-05-12T06:16:39;100548.97;;;15.99;29.50
70690;BME280;58267;51.156;17.044;2023-05-12T06:19:05;100550.68;;;16.15;29.15
70690;BME280;58267;51.156;17.044;2023-05-12T06:21:31;100546.41;;;16.33;29.46
70690;BME280;58267;51.156;17.044;2023-05-12T06:23:57;100545.79;;;16.01;29.51
70690;BME280;58267;51.156;17.044;2023-05-12T06:26:22;100544.66;;;16.05;29.96
70690;BME280;58267;51.156;17.044;2023-05-12T06:28:48;100545.28;;;16.14;29.70
70690;BME280;58267;51.156;17.044;2023-05-12T06:31:13;100549.34;;;16.14;29.59
70690;BME280;58267;51.156;17.044;2023-05-12T06:33:38;100548.86;;;16.20;29.36
70690;BME280;58267;51.156;17.044;2023-05-12T06:36:04;100552.11;;;16.15;30.01
70690;BME280;58267;51.156;17.044;2023-05-12T06:38:29;100551.35;;;16.26;30.37
70690;BME280;58267;51.156;17.044;2023-05-12T06:40:55;100555.45;;;15.32;30.93
70690;BME280;58267;51.156;17.044;2023-05-12T06:43:24;100554.44;;;16.61;31.31
70690;BME280;58267;51.156;17.044;2023-05-12T06:45:50;100554.92;;;16.75;29.56
70690;BME280;58267;51.156;17.044;2023-05-12T06:48:15;100554.42;;;16.69;30.99
70690;BME280;58267;51.156;17.044;2023-05-12T06:50:40;100559.07;;;16.79;31.75
70690;BME280;58267;51.156;17.044;2023-05-12T06:53:06;100559.25;;;17.35;29.11
70690;BME280;58267;51.156;17.044;2023-05-12T06:55:31;100552.23;;;17.08;30.61
70690;BME280;58267;51.156;17.044;2023-05-12T06:57:57;100553.02;;;17.63;29.25
70690;BME280;58267;51.156;17.044;2023-05-12T07:00:23;100551.08;;;17.49;28.26
70690;BME280;58267;51.156;17.044;2023-05-12T07:02:48;100548.57;;;17.76;31.20
70690;BME280;58267;51.156;17.044;2023-05-12T07:05:13;100549.88;;;17.83;28.13
70690;BME280;58267;51.156;17.044;2023-05-12T07:07:39;100547.56;;;17.82;28.59
70690;BME280;58267;51.156;17.044;2023-05-12T07:10:06;100542.18;;;17.95;27.25
70690;BME280;58267;51.156;17.044;2023-05-12T07:12:31;100537.94;;;17.76;28.25
70690;BME280;58267;51.156;17.044;2023-05-12T07:14:56;100540.13;;;17.96;27.86
70690;BME280;58267;51.156;17.044;2023-05-12T07:17:21;100539.30;;;17.98;27.13
70690;BME280;58267;51.156;17.044;2023-05-12T07:19:46;100538.44;;;18.35;27.89
70690;BME280;58267;51.156;17.044;2023-05-12T07:22:12;100542.73;;;18.27;27.34
70690;BME280;58267;51.156;17.044;2023-05-12T07:24:38;100545.09;;;18.34;27.18
70690;BME280;58267;51.156;17.044;2023-05-12T07:27:04;100544.05;;;18.41;27.21
70690;BME280;58267;51.156;17.044;2023-05-12T07:29:28;100543.56;;;18.27;27.28
70690;BME280;58267;51.156;17.044;2023-05-12T07:31:54;100544.16;;;18.38;28.18
70690;BME280;58267;51.156;17.044;2023-05-12T07:34:19;100542.41;;;18.71;28.54
70690;BME280;58267;51.156;17.044;2023-05-12T07:36:45;100542.19;;;18.44;27.22
70690;BME280;58267;51.156;17.044;2023-05-12T07:39:10;100544.32;;;19.08;27.04
70690;BME280;58267;51.156;17.044;2023-05-12T07:41:35;100544.72;;;18.85;28.27
70690;BME280;58267;51.156;17.044;2023-05-12T07:44:01;100545.37;;;18.84;27.22
70690;BME280;58267;51.156;17.044;2023-05-12T07:46:26;100544.82;;;18.53;27.29
70690;BME280;58267;51.156;17.044;2023-05-12T07:48:52;100543.74;;;19.11;27.23
70690;BME280;58267;51.156;17.044;2023-05-12T07:51:17;100543.12;;;18.94;26.79
70690;BME280;58267;51.156;17.044;2023-05-12T07:53:42;100546.96;;;19.23;27.21
70690;BME280;58267;51.156;17.044;2023-05-12T07:56:07;100542.35;;;18.73;28.75
70690;BME280;58267;51.156;17.044;2023-05-12T07:58:32;100545.73;;;19.43;27.68
70690;BME280;58267;51.156;17.044;2023-05-12T08:00:58;100545.13;;;19.23;26.89
70690;BME280;58267;51.156;17.044;2023-05-12T08:03:23;100545.08;;;19.55;27.14
70690;BME280;58267;51.156;17.044;2023-05-12T08:05:49;100545.98;;;19.36;26.69
70690;BME280;58267;51.156;17.044;2023-05-12T08:08:14;100545.02;;;19.59;26.82
70690;BME280;58267;51.156;17.044;2023-05-12T08:10:40;100542.85;;;19.63;27.51
70690;BME280;58267;51.156;17.044;2023-05-12T08:13:05;100539.63;;;20.02;27.41
70690;BME280;58267;51.156;17.044;2023-05-12T08:15:31;100542.08;;;20.09;26.73
70690;BME280;58267;51.156;17.044;2023-05-12T08:17:57;100537.60;;;20.05;26.55
70690;BME280;58267;51.156;17.044;2023-05-12T08:20:22;100539.47;;;19.67;27.18
70690;BME280;58267;51.156;17.044;2023-05-12T08:22:48;100535.47;;;19.87;26.52
70690;BME280;58267;51.156;17.044;2023-05-12T08:25:13;100536.31;;;19.96;26.53
70690;BME280;58267;51.156;17.044;2023-05-12T08:27:38;100536.10;;;20.17;27.08
70690;BME280;58267;51.156;17.044;2023-05-12T08:30:04;100537.99;;;20.20;26.16
70690;BME280;58267;51.156;17.044;2023-05-12T08:32:29;100542.50;;;20.03;26.62
70690;BME280;58267;51.156;17.044;2023-05-12T08:34:54;100542.32;;;20.21;26.23
70690;BME280;58267;51.156;17.044;2023-05-12T08:37:20;100541.19;;;20.22;25.98
70690;BME280;58267;51.156;17.044;2023-05-12T08:39:45;100538.42;;;20.55;26.11
70690;BME280;58267;51.156;17.044;2023-05-12T08:42:23;100543.76;;;20.73;25.97
70690;BME280;58267;51.156;17.044;2023-05-12T08:44:36;100539.96;;;20.56;25.71
70690;BME280;58267;51.156;17.044;2023-05-12T08:47:04;100539.96;;;20.66;25.95
70690;BME280;58267;51.156;17.044;2023-05-12T08:49:28;100540.49;;;20.88;26.02
70690;BME280;58267;51.156;17.044;2023-05-12T08:51:52;100543.71;;;21.31;24.71
70690;BME280;58267;51.156;17.044;2023-05-12T08:54:18;100548.35;;;21.10;25.68
70690;BME280;58267;51.156;17.044;2023-05-12T08:56:44;100547.50;;;20.78;25.47
70690;BME280;58267;51.156;17.044;2023-05-12T08:59:09;100545.94;;;21.00;25.61
70690;BME280;58267;51.156;17.044;2023-05-12T09:01:35;100546.21;;;21.38;25.86
70690;BME280;58267;51.156;17.044;2023-05-12T09:03:59;100542.98;;;21.40;25.54
70690;BME280;58267;51.156;17.044;2023-05-12T09:06:24;100541.81;;;21.40;24.72
70690;BME280;58267;51.156;17.044;2023-05-12T09:08:50;100545.57;;;21.42;25.64
70690;BME280;58267;51.156;17.044;2023-05-12T09:11:16;100544.80;;;21.59;25.28
70690;BME280;58267;51.156;17.044;2023-05-12T09:13:47;100546.45;;;21.79;24.86
70690;BME280;58267;51.156;17.044;2023-05-12T09:16:10;100539.83;;;21.54;24.74
70690;BME280;58267;51.156;17.044;2023-05-12T09:18:43;100537.77;;;22.25;25.80
70690;BME280;58267;51.156;17.044;2023-05-12T09:20:59;100536.30;;;21.72;24.44
70690;BME280;58267;51.156;17.044;2023-05-12T09:23:23;100532.05;;;22.02;24.51
70690;BME280;58267;51.156;17.044;2023-05-12T09:28:14;100529.37;;;21.79;24.25
70690;BME280;58267;51.156;17.044;2023-05-12T09:30:39;100530.71;;;22.10;25.29
70690;BME280;58267;51.156;17.044;2023-05-12T09:33:05;100525.87;;;22.38;24.92
70690;BME280;58267;51.156;17.044;2023-05-12T09:35:29;100528.20;;;22.20;24.57
70690;BME280;58267;51.156;17.044;2023-05-12T09:37:55;100522.54;;;22.37;24.61
70690;BME280;58267;51.156;17.044;2023-05-12T09:40:21;100526.11;;;22.33;23.94
70690;BME280;58267;51.156;17.044;2023-05-12T09:42:46;100530.08;;;22.31;24.01
70690;BME280;58267;51.156;17.044;2023-05-12T09:45:13;100526.34;;;22.17;23.82
70690;BME280;58267;51.156;17.044;2023-05-12T09:47:38;100529.77;;;22.02;23.77
70690;BME280;58267;51.156;17.044;2023-05-12T09:50:03;100527.86;;;22.15;24.04
70690;BME280;58267;51.156;17.044;2023-05-12T09:52:28;100522.07;;;22.46;24.93
70690;BME280;58267;51.156;17.044;2023-05-12T09:54:53;100520.93;;;22.53;24.09
70690;BME280;58267;51.156;17.044;2023-05-12T09:57:20;100532.84;;;22.20;24.70
70690;BME280;58267;51.156;17.044;2023-05-12T09:59:45;100527.80;;;22.37;23.01
70690;BME280;58267;51.156;17.044;2023-05-12T10:02:11;100522.63;;;22.64;23.42
70690;BME280;58267;51.156;17.044;2023-05-12T10:04:39;100516.87;;;22.24;23.76
70690;BME280;58267;51.156;17.044;2023-05-12T10:07:00;100513.59;;;22.41;24.00
70690;BME280;58267;51.156;17.044;2023-05-12T10:09:27;100526.73;;;21.91;23.53
70690;BME280;58267;51.156;17.044;2023-05-12T10:11:51;100512.80;;;22.42;23.77
70690;BME280;58267;51.156;17.044;2023-05-12T10:14:16;100513.88;;;22.61;24.01
70690;BME280;58267;51.156;17.044;2023-05-12T10:16:41;100509.95;;;22.27;22.70
70690;BME280;58267;51.156;17.044;2023-05-12T10:19:06;100508.64;;;22.48;24.14
70690;BME280;58267;51.156;17.044;2023-05-12T10:21:32;100509.59;;;22.67;23.62
70690;BME280;58267;51.156;17.044;2023-05-12T10:23:58;100506.48;;;22.79;23.77
70690;BME280;58267;51.156;17.044;2023-05-12T10:26:22;100506.25;;;22.60;24.51
70690;BME280;58267;51.156;17.044;2023-05-12T10:28:48;100501.98;;;22.51;23.07
70690;BME280;58267;51.156;17.044;2023-05-12T10:31:13;100502.36;;;22.03;24.53
70690;BME280;58267;51.156;17.044;2023-05-12T10:33:38;100502.75;;;22.51;23.39
70690;BME280;58267;51.156;17.044;2023-05-12T10:36:03;100499.24;;;22.31;21.74
70690;BME280;58267;51.156;17.044;2023-05-12T10:38:34;100499.21;;;22.53;23.47
70690;BME280;58267;51.156;17.044;2023-05-12T10:40:54;100502.75;;;22.56;22.99
70690;BME280;58267;51.156;17.044;2023-05-12T10:43:21;100502.00;;;23.27;23.01
70690;BME280;58267;51.156;17.044;2023-05-12T10:45:44;100501.31;;;23.11;22.15
70690;BME280;58267;51.156;17.044;2023-05-12T10:48:14;100492.14;;;23.24;23.04
70690;BME280;58267;51.156;17.044;2023-05-12T10:50:35;100500.36;;;22.69;23.50
70690;BME280;58267;51.156;17.044;2023-05-12T10:53:00;100500.19;;;22.55;22.57
70690;BME280;58267;51.156;17.044;2023-05-12T10:55:30;100501.91;;;21.90;22.61
70690;BME280;58267;51.156;17.044;2023-05-12T10:57:50;100498.77;;;22.99;21.00
70690;BME280;58267;51.156;17.044;2023-05-12T11:00:20;100494.50;;;23.09;22.29
70690;BME280;58267;51.156;17.044;2023-05-12T11:02:49;100498.27;;;22.34;21.22
70690;BME280;58267;51.156;17.044;2023-05-12T11:05:10;100496.97;;;23.10;22.08
70690;BME280;58267;51.156;17.044;2023-05-12T11:07:32;100490.12;;;22.68;22.22
70690;BME280;58267;51.156;17.044;2023-05-12T11:09:58;100488.09;;;23.13;22.42
70690;BME280;58267;51.156;17.044;2023-05-12T11:12:22;100492.46;;;23.65;21.93
70690;BME280;58267;51.156;17.044;2023-05-12T11:14:47;100497.39;;;23.31;20.77
70690;BME280;58267;51.156;17.044;2023-05-12T11:17:12;100496.59;;;23.64;20.71
70690;BME280;58267;51.156;17.044;2023-05-12T11:19:38;100488.43;;;24.06;19.92
70690;BME280;58267;51.156;17.044;2023-05-12T11:22:05;100487.35;;;23.78;21.44
70690;BME280;58267;51.156;17.044;2023-05-12T11:24:28;100482.22;;;23.49;20.34
70690;BME280;58267;51.156;17.044;2023-05-12T11:26:53;100488.18;;;23.12;21.12
70690;BME280;58267;51.156;17.044;2023-05-12T11:29:19;100484.68;;;23.18;22.15
70690;BME280;58267;51.156;17.044;2023-05-12T11:31:46;100487.64;;;23.16;21.35
70690;BME280;58267;51.156;17.044;2023-05-12T11:34:09;100491.78;;;23.73;21.63
70690;BME280;58267;51.156;17.044;2023-05-12T11:36:38;100496.24;;;23.97;21.05
70690;BME280;58267;51.156;17.044;2023-05-12T11:38:59;100495.28;;;23.97;20.21
70690;BME280;58267;51.156;17.044;2023-05-12T11:41:25;100486.33;;;24.15;20.36
70690;BME280;58267;51.156;17.044;2023-05-12T11:43:50;100495.59;;;24.72;19.47
70690;BME280;58267;51.156;17.044;2023-05-12T11:46:23;100491.22;;;24.73;18.88
70690;BME280;58267;51.156;17.044;2023-05-12T11:48:40;100488.36;;;24.20;18.06
70690;BME280;58267;51.156;17.044;2023-05-12T11:51:05;100493.80;;;24.68;18.65
70690;BME280;58267;51.156;17.044;2023-05-12T11:53:30;100495.88;;;24.31;18.84
70690;BME280;58267;51.156;17.044;2023-05-12T11:55:56;100490.53;;;24.45;19.11
70690;BME280;58267;51.156;17.044;2023-05-12T11:58:22;100494.65;;;24.43;19.94
70690;BME280;58267;51.156;17.044;2023-05-12T12:00:46;100497.77;;;24.83;19.17
70690;BME280;58267;51.156;17.044;2023-05-12T12:03:12;100498.27;;;24.91;18.91
70690;BME280;58267;51.156;17.044;2023-05-12T12:05:36;100488.56;;;25.24;18.42
70690;BME280;58267;51.156;17.044;2023-05-12T12:08:07;100489.75;;;24.98;18.94
70690;BME280;58267;51.156;17.044;2023-05-12T12:10:27;100494.89;;;25.13;18.75
70690;BME280;58267;51.156;17.044;2023-05-12T12:12:53;100496.60;;;24.56;17.73
70690;BME280;58267;51.156;17.044;2023-05-12T12:15:17;100495.99;;;24.72;17.84
70690;BME280;58267;51.156;17.044;2023-05-12T12:17:42;100497.15;;;24.93;17.42
70690;BME280;58267;51.156;17.044;2023-05-12T12:20:08;100496.61;;;24.81;17.60
70690;BME280;58267;51.156;17.044;2023-05-12T12:22:33;100494.24;;;24.63;17.49
70690;BME280;58267;51.156;17.044;2023-05-12T12:24:58;100497.09;;;24.27;17.51
70690;BME280;58267;51.156;17.044;2023-05-12T12:27:24;100496.67;;;23.67;17.20
70690;BME280;58267;51.156;17.044;2023-05-12T12:29:49;100498.00;;;23.68;17.08
70690;BME280;58267;51.156;17.044;2023-05-12T12:32:14;100498.41;;;24.39;17.68